sensor_id;sensor_type;location;lat;lon;timestamp;temperature;humidity
8105;DHT22;4095;48.942;9.104;2023-12-20T00:02:17;7.80;99.90
8105;DHT22;4095;48.942;9.104;2023-12-20T00:04:42;7.80;99.90
8105;DHT22;4095;48.942;9.104;2023-12-20T00:07:08;7.80;99.90
8105;DHT22;4095;48.942;9.104;2023-12-20T00:09:34;7.80;99.90
8105;DHT22;4095;48.942;9.104;2023-12-20T00:11:59;7.80;99.90
8105;DHT22;4095;48.942;9.104;2023-12-20T00:14:25;7.80;99.90
8105;DHT22;4095;48.942;9.104;2023-12-20T00:16:50;7.80;99.90
8105;DHT22;4095;48.942;9.104;2023-12-20T00:19:16;7.80;99.90
8105;DHT22;4095;48.942;9.104;2023-12-20T00:21:41;7.80;99.90
8105;DHT22;4095;48.942;9.104;2023-12-20T00:24:07;7.80;99.90
8105;DHT22;4095;48.942;9.104;2023-12-20T00:26:33;7.80;99.90
8105;DHT22;4095;48.942;9.104;2023-12-20T00:28:59;7.80;99.90
8105;DHT22;4095;48.942;9.104;2023-12-20T00:31:25;7.80;99.90
8105;DHT22;4095;48.942;9.104;2023-12-20T00:33:50;7.80;99.90
8105;DHT22;4095;48.942;9.104;2023-12-20T00:36:16;7.80;99.90
8105;DHT22;4095;48.942;9.104;2023-12-20T00:38:43;7.80;99.90
8105;DHT22;4095;48.942;9.104;2023-12-20T00:41:08;7.80;99.90
8105;DHT22;4095;48.942;9.104;2023-12-20T00:43:34;7.80;99.90
8105;DHT22;4095;48.942;9.104;2023-12-20T00:45:59;7.70;99.90
8105;DHT22;4095;48.942;9.104;2023-12-20T00:48:27;7.80;99.90
8105;DHT22;4095;48.942;9.104;2023-12-20T00:50:55;7.70;99.90
8105;DHT22;4095;48.942;9.104;2023-12-20T00:53:21;7.80;99.90
8105;DHT22;4095;48.942;9.104;2023-12-20T00:55:46;7.80;99.90
8105;DHT22;4095;48.942;9.104;2023-12-20T00:58:12;7.80;99.90
8105;DHT22;4095;48.942;9.104;2023-12-20T01:00:37;7.80;99.90
8105;DHT22;4095;48.942;9.104;2023-12-20T01:03:03;7.80;99.90
8105;DHT22;4095;48.942;9.104;2023-12-20T01:05:29;7.70;99.90
8105;DHT22;4095;48.942;9.104;2023-12-20T01:07:54;7.80;99.90
8105;DHT22;4095;48.942;9.104;2023-12-20T01:10:20;7.80;99.90
8105;DHT22;4095;48.942;9.104;2023-12-20T01:12:47;7.70;99.90
8105;DHT22;4095;48.942;9.104;2023-12-20T01:15:12;7.70;99.90
8105;DHT22;4095;48.942;9.104;2023-12-20T01:17:38;7.70;99.90
8105;DHT22;4095;48.942;9.104;2023-12-20T01:20:04;7.70;99.90
8105;DHT22;4095;48.942;9.104;2023-12-20T01:22:30;7.80;99.90
8105;DHT22;4095;48.942;9.104;2023-12-20T01:24:55;7.70;99.90
8105;DHT22;4095;48.942;9.104;2023-12-20T01:27:21;7.70;99.90
8105;DHT22;4095;48.942;9.104;2023-12-20T01:29:46;7.70;99.90
8105;DHT22;4095;48.942;9.104;2023-12-20T01:32:12;7.80;99.90
8105;DHT22;4095;48.942;9.104;2023-12-20T01:34:37;7.80;99.90
8105;DHT22;4095;48.942;9.104;2023-12-20T01:37:03;7.80;99.90
8105;DHT22;4095;48.942;9.104;2023-12-20T01:39:29;7.80;99.90
8105;DHT22;4095;48.942;9.104;2023-12-20T01:41:55;7.70;99.90
8105;DHT22;4095;48.942;9.104;2023-12-20T01:44:20;7.80;99.90
8105;DHT22;4095;48.942;9.104;2023-12-20T01:46:46;7.80;99.90
8105;DHT22;4095;48.942;9.104;2023-12-20T01:49:12;7.80;99.90
8105;DHT22;4095;48.942;9.104;2023-12-20T01:51:38;7.70;99.90
8105;DHT22;4095;48.942;9.104;2023-12-20T01:54:04;7.80;99.90
8105;DHT22;4095;48.942;9.104;2023-12-20T01:56:30;7.90;99.90
8105;DHT22;4095;48.942;9.104;2023-12-20T01:58:57;7.80;99.90
8105;DHT22;4095;48.942;9.104;2023-12-20T02:01:23;7.80;99.90
8105;DHT22;4095;48.942;9.104;2023-12-20T02:03:50;7.90;99.90
8105;DHT22;4095;48.942;9.104;2023-12-20T02:06:17;7.90;99.90
8105;DHT22;4095;48.942;9.104;2023-12-20T02:08:43;8.00;99.90
8105;DHT22;4095;48.942;9.104;2023-12-20T02:11:10;8.00;99.90
8105;DHT22;4095;48.942;9.104;2023-12-20T02:13:36;8.00;99.90
8105;DHT22;4095;48.942;9.104;2023-12-20T02:16:01;8.00;99.90
8105;DHT22;4095;48.942;9.104;2023-12-20T02:18:27;8.10;99.90
8105;DHT22;4095;48.942;9.104;2023-12-20T02:20:53;8.10;99.90
8105;DHT22;4095;48.942;9.104;2023-12-20T02:23:19;8.20;99.90
8105;DHT22;4095;48.942;9.104;2023-12-20T02:25:44;8.20;99.90
8105;DHT22;4095;48.942;9.104;2023-12-20T02:28:10;8.20;99.90
8105;DHT22;4095;48.942;9.104;2023-12-20T02:30:35;8.30;99.90
8105;DHT22;4095;48.942;9.104;2023-12-20T02:33:01;8.30;99.90
8105;DHT22;4095;48.942;9.104;2023-12-20T02:35:29;8.40;99.90
8105;DHT22;4095;48.942;9.104;2023-12-20T02:37:54;8.30;99.90
8105;DHT22;4095;48.942;9.104;2023-12-20T02:40:20;8.40;99.90
8105;DHT22;4095;48.942;9.104;2023-12-20T02:42:45;8.40;99.90
8105;DHT22;4095;48.942;9.104;2023-12-20T02:45:11;8.40;99.90
8105;DHT22;4095;48.942;9.104;2023-12-20T02:47:36;8.40;99.90
8105;DHT22;4095;48.942;9.104;2023-12-20T02:50:02;8.40;99.90
8105;DHT22;4095;48.942;9.104;2023-12-20T02:52:29;8.40;99.90
8105;DHT22;4095;48.942;9.104;2023-12-20T02:54:54;8.40;99.90
8105;DHT22;4095;48.942;9.104;2023-12-20T02:57:20;8.40;99.90
8105;DHT22;4095;48.942;9.104;2023-12-20T02:59:45;8.40;99.90
8105;DHT22;4095;48.942;9.104;2023-12-20T03:02:11;8.40;99.90
8105;DHT22;4095;48.942;9.104;2023-12-20T03:04:36;8.50;99.90
8105;DHT22;4095;48.942;9.104;2023-12-20T03:07:02;8.40;99.90
8105;DHT22;4095;48.942;9.104;2023-12-20T03:09:27;8.40;99.90
8105;DHT22;4095;48.942;9.104;2023-12-20T03:11:53;8.40;99.90
8105;DHT22;4095;48.942;9.104;2023-12-20T03:14:19;8.40;99.90
8105;DHT22;4095;48.942;9.104;2023-12-20T03:16:50;8.40;99.90
8105;DHT22;4095;48.942;9.104;2023-12-20T03:19:17;8.40;99.90
8105;DHT22;4095;48.942;9.104;2023-12-20T03:21:43;8.30;99.90
8105;DHT22;4095;48.942;9.104;2023-12-20T03:24:08;8.40;99.90
8105;DHT22;4095;48.942;9.104;2023-12-20T03:26:34;8.40;99.90
8105;DHT22;4095;48.942;9.104;2023-12-20T03:28:59;8.40;99.90
8105;DHT22;4095;48.942;9.104;2023-12-20T03:31:25;8.40;99.90
8105;DHT22;4095;48.942;9.104;2023-12-20T03:33:51;8.40;99.90
8105;DHT22;4095;48.942;9.104;2023-12-20T03:36:19;8.40;99.90
8105;DHT22;4095;48.942;9.104;2023-12-20T03:38:44;8.40;99.90
8105;DHT22;4095;48.942;9.104;2023-12-20T03:41:11;8.30;99.90
8105;DHT22;4095;48.942;9.104;2023-12-20T03:43:37;8.30;99.90
8105;DHT22;4095;48.942;9.104;2023-12-20T03:46:03;8.30;99.90
8105;DHT22;4095;48.942;9.104;2023-12-20T03:48:30;8.40;99.90
8105;DHT22;4095;48.942;9.104;2023-12-20T03:50:56;8.30;99.90
8105;DHT22;4095;48.942;9.104;2023-12-20T03:53:22;8.30;99.90
8105;DHT22;4095;48.942;9.104;2023-12-20T03:55:48;8.30;99.90
8105;DHT22;4095;48.942;9.104;2023-12-20T03:58:13;8.40;99.90
8105;DHT22;4095;48.942;9.104;2023-12-20T04:00:39;8.30;99.90
8105;DHT22;4095;48.942;9.104;2023-12-20T04:03:04;8.30;99.90
8105;DHT22;4095;48.942;9.104;2023-12-20T04:05:30;8.30;99.90
8105;DHT22;4095;48.942;9.104;2023-12-20T04:07:56;8.30;99.90
8105;DHT22;4095;48.942;9.104;2023-12-20T04:10:21;8.20;99.90
8105;DHT22;4095;48.942;9.104;2023-12-20T04:12:47;8.20;99.90
8105;DHT22;4095;48.942;9.104;2023-12-20T04:15:12;8.30;99.90
8105;DHT22;4095;48.942;9.104;2023-12-20T04:17:38;8.30;99.90
8105;DHT22;4095;48.942;9.104;2023-12-20T04:20:04;8.20;99.90
8105;DHT22;4095;48.942;9.104;2023-12-20T04:22:30;8.20;99.90
8105;DHT22;4095;48.942;9.104;2023-12-20T04:24:56;8.20;99.90
8105;DHT22;4095;48.942;9.104;2023-12-20T04:27:21;8.20;99.90
8105;DHT22;4095;48.942;9.104;2023-12-20T04:29:47;8.10;99.90
8105;DHT22;4095;48.942;9.104;2023-12-20T04:32:12;8.20;99.90
8105;DHT22;4095;48.942;9.104;2023-12-20T04:34:38;8.10;99.90
8105;DHT22;4095;48.942;9.104;2023-12-20T04:37:04;8.20;99.90
8105;DHT22;4095;48.942;9.104;2023-12-20T04:39:30;8.20;99.90
8105;DHT22;4095;48.942;9.104;2023-12-20T04:41:55;8.20;99.90
8105;DHT22;4095;48.942;9.104;2023-12-20T04:44:21;8.20;99.90
8105;DHT22;4095;48.942;9.104;2023-12-20T04:46:46;8.30;99.90
8105;DHT22;4095;48.942;9.104;2023-12-20T04:49:12;8.20;99.90
8105;DHT22;4095;48.942;9.104;2023-12-20T04:51:38;8.20;99.90
8105;DHT22;4095;48.942;9.104;2023-12-20T04:54:03;8.30;99.90
8105;DHT22;4095;48.942;9.104;2023-12-20T04:56:29;8.30;99.90
8105;DHT22;4095;48.942;9.104;2023-12-20T04:58:55;8.30;99.90
8105;DHT22;4095;48.942;9.104;2023-12-20T05:01:20;8.30;99.90
8105;DHT22;4095;48.942;9.104;2023-12-20T05:03:46;8.30;99.90
8105;DHT22;4095;48.942;9.104;2023-12-20T05:06:12;8.30;99.90
8105;DHT22;4095;48.942;9.104;2023-12-20T05:08:37;8.40;99.90
8105;DHT22;4095;48.942;9.104;2023-12-20T05:11:03;8.40;99.90
8105;DHT22;4095;48.942;9.104;2023-12-20T05:13:29;8.40;99.90
8105;DHT22;4095;48.942;9.104;2023-12-20T05:15:55;8.40;99.90
8105;DHT22;4095;48.942;9.104;2023-12-20T05:18:21;8.40;99.90
8105;DHT22;4095;48.942;9.104;2023-12-20T05:20:47;8.40;99.90
8105;DHT22;4095;48.942;9.104;2023-12-20T05:23:12;8.40;99.90
8105;DHT22;4095;48.942;9.104;2023-12-20T05:25:38;8.40;99.90
8105;DHT22;4095;48.942;9.104;2023-12-20T05:28:04;8.40;99.90
8105;DHT22;4095;48.942;9.104;2023-12-20T05:30:30;8.40;99.90
8105;DHT22;4095;48.942;9.104;2023-12-20T05:32:55;8.40;99.90
8105;DHT22;4095;48.942;9.104;2023-12-20T05:35:21;8.40;99.90
8105;DHT22;4095;48.942;9.104;2023-12-20T05:37:49;8.40;99.90
8105;DHT22;4095;48.942;9.104;2023-12-20T05:40:15;8.40;99.90
8105;DHT22;4095;48.942;9.104;2023-12-20T05:42:40;8.40;99.90
8105;DHT22;4095;48.942;9.104;2023-12-20T05:45:06;8.40;99.90
8105;DHT22;4095;48.942;9.104;2023-12-20T05:47:32;8.40;99.90
8105;DHT22;4095;48.942;9.104;2023-12-20T05:49:57;8.40;99.90
8105;DHT22;4095;48.942;9.104;2023-12-20T05:52:23;8.40;99.90
8105;DHT22;4095;48.942;9.104;2023-12-20T05:54:48;8.50;99.90
8105;DHT22;4095;48.942;9.104;2023-12-20T05:57:14;8.40;99.90
8105;DHT22;4095;48.942;9.104;2023-12-20T05:59:40;8.40;99.90
8105;DHT22;4095;48.942;9.104;2023-12-20T06:02:05;8.50;99.90
8105;DHT22;4095;48.942;9.104;2023-12-20T06:04:31;8.50;99.90
8105;DHT22;4095;48.942;9.104;2023-12-20T06:06:57;8.50;99.90
8105;DHT22;4095;48.942;9.104;2023-12-20T06:09:23;8.50;99.90
8105;DHT22;4095;48.942;9.104;2023-12-20T06:11:49;8.50;99.90
8105;DHT22;4095;48.942;9.104;2023-12-20T06:14:15;8.50;99.90
8105;DHT22;4095;48.942;9.104;2023-12-20T06:16:40;8.50;99.90
8105;DHT22;4095;48.942;9.104;2023-12-20T06:19:06;8.40;99.90
8105;DHT22;4095;48.942;9.104;2023-12-20T06:21:32;8.50;99.90
8105;DHT22;4095;48.942;9.104;2023-12-20T06:23:59;8.50;99.90
8105;DHT22;4095;48.942;9.104;2023-12-20T06:26:24;8.50;99.90
8105;DHT22;4095;48.942;9.104;2023-12-20T06:28:50;8.50;99.90
8105;DHT22;4095;48.942;9.104;2023-12-20T06:31:15;8.50;99.90
8105;DHT22;4095;48.942;9.104;2023-12-20T06:33:42;8.50;99.90
8105;DHT22;4095;48.942;9.104;2023-12-20T06:36:11;8.50;99.90
8105;DHT22;4095;48.942;9.104;2023-12-20T06:38:37;8.50;99.90
8105;DHT22;4095;48.942;9.104;2023-12-20T06:41:03;8.40;99.90
8105;DHT22;4095;48.942;9.104;2023-12-20T06:43:28;8.50;99.90
8105;DHT22;4095;48.942;9.104;2023-12-20T06:45:54;8.60;99.90
8105;DHT22;4095;48.942;9.104;2023-12-20T06:48:20;8.60;99.90
8105;DHT22;4095;48.942;9.104;2023-12-20T06:50:46;8.60;99.90
8105;DHT22;4095;48.942;9.104;2023-12-20T06:53:11;8.50;99.90
8105;DHT22;4095;48.942;9.104;2023-12-20T06:55:38;8.50;99.90
8105;DHT22;4095;48.942;9.104;2023-12-20T06:58:03;8.50;99.90
8105;DHT22;4095;48.942;9.104;2023-12-20T07:00:30;8.60;99.90
8105;DHT22;4095;48.942;9.104;2023-12-20T07:02:56;8.50;99.90
8105;DHT22;4095;48.942;9.104;2023-12-20T07:05:21;8.50;99.90
8105;DHT22;4095;48.942;9.104;2023-12-20T07:07:47;8.50;99.90
8105;DHT22;4095;48.942;9.104;2023-12-20T07:10:13;8.40;99.90
8105;DHT22;4095;48.942;9.104;2023-12-20T07:12:39;8.40;99.90
8105;DHT22;4095;48.942;9.104;2023-12-20T07:15:05;8.40;99.90
8105;DHT22;4095;48.942;9.104;2023-12-20T07:17:32;8.50;99.90
8105;DHT22;4095;48.942;9.104;2023-12-20T07:19:58;8.50;99.90
8105;DHT22;4095;48.942;9.104;2023-12-20T07:22:24;8.50;99.90
8105;DHT22;4095;48.942;9.104;2023-12-20T07:24:49;8.50;99.90
8105;DHT22;4095;48.942;9.104;2023-12-20T07:27:17;8.60;99.90
8105;DHT22;4095;48.942;9.104;2023-12-20T07:29:43;8.50;99.90
8105;DHT22;4095;48.942;9.104;2023-12-20T07:32:09;8.50;99.90
8105;DHT22;4095;48.942;9.104;2023-12-20T07:34:34;8.50;99.90
8105;DHT22;4095;48.942;9.104;2023-12-20T07:37:00;8.50;99.90
8105;DHT22;4095;48.942;9.104;2023-12-20T07:39:25;8.50;99.90
8105;DHT22;4095;48.942;9.104;2023-12-20T07:41:51;8.50;99.90
8105;DHT22;4095;48.942;9.104;2023-12-20T07:44:16;8.50;99.90
8105;DHT22;4095;48.942;9.104;2023-12-20T07:46:42;8.50;99.90
8105;DHT22;4095;48.942;9.104;2023-12-20T07:49:07;8.40;99.90
8105;DHT22;4095;48.942;9.104;2023-12-20T07:51:34;8.40;99.90
8105;DHT22;4095;48.942;9.104;2023-12-20T07:53:59;8.30;99.90
8105;DHT22;4095;48.942;9.104;2023-12-20T07:56:25;8.30;99.90
8105;DHT22;4095;48.942;9.104;2023-12-20T07:58:50;8.20;99.90
8105;DHT22;4095;48.942;9.104;2023-12-20T08:01:16;8.20;99.90
8105;DHT22;4095;48.942;9.104;2023-12-20T08:03:43;8.20;99.90
8105;DHT22;4095;48.942;9.104;2023-12-20T08:06:09;8.10;99.90
8105;DHT22;4095;48.942;9.104;2023-12-20T08:08:34;8.20;99.90
8105;DHT22;4095;48.942;9.104;2023-12-20T08:11:00;8.20;99.90
8105;DHT22;4095;48.942;9.104;2023-12-20T08:13:26;8.20;99.90
8105;DHT22;4095;48.942;9.104;2023-12-20T08:15:53;8.30;99.90
8105;DHT22;4095;48.942;9.104;2023-12-20T08:18:19;8.30;99.90
8105;DHT22;4095;48.942;9.104;2023-12-20T08:20:44;8.30;99.90
8105;DHT22;4095;48.942;9.104;2023-12-20T08:23:10;8.30;99.90
8105;DHT22;4095;48.942;9.104;2023-12-20T08:25:35;8.30;99.90
8105;DHT22;4095;48.942;9.104;2023-12-20T08:28:02;8.40;99.90
8105;DHT22;4095;48.942;9.104;2023-12-20T08:30:28;8.40;99.90
8105;DHT22;4095;48.942;9.104;2023-12-20T08:32:55;8.50;99.90
8105;DHT22;4095;48.942;9.104;2023-12-20T08:35:20;8.50;99.90
8105;DHT22;4095;48.942;9.104;2023-12-20T08:37:46;8.50;99.90
8105;DHT22;4095;48.942;9.104;2023-12-20T08:40:12;8.50;99.90
8105;DHT22;4095;48.942;9.104;2023-12-20T08:42:37;8.50;99.90
8105;DHT22;4095;48.942;9.104;2023-12-20T08:45:03;8.60;99.90
8105;DHT22;4095;48.942;9.104;2023-12-20T08:47:30;8.60;99.90
8105;DHT22;4095;48.942;9.104;2023-12-20T08:49:55;8.70;99.90
8105;DHT22;4095;48.942;9.104;2023-12-20T08:52:24;8.80;99.90
8105;DHT22;4095;48.942;9.104;2023-12-20T08:54:53;8.80;99.90
8105;DHT22;4095;48.942;9.104;2023-12-20T08:57:22;8.90;99.90
8105;DHT22;4095;48.942;9.104;2023-12-20T08:59:51;8.90;99.90
8105;DHT22;4095;48.942;9.104;2023-12-20T09:02:17;9.00;99.90
8105;DHT22;4095;48.942;9.104;2023-12-20T09:04:43;9.00;99.90
8105;DHT22;4095;48.942;9.104;2023-12-20T09:07:25;9.10;99.90
8105;DHT22;4095;48.942;9.104;2023-12-20T09:09:52;9.20;99.90
8105;DHT22;4095;48.942;9.104;2023-12-20T09:12:21;9.30;99.90
8105;DHT22;4095;48.942;9.104;2023-12-20T09:14:47;9.30;99.90
8105;DHT22;4095;48.942;9.104;2023-12-20T09:17:13;9.30;99.90
8105;DHT22;4095;48.942;9.104;2023-12-20T09:19:38;9.40;99.90
8105;DHT22;4095;48.942;9.104;2023-12-20T09:22:05;9.40;99.90
8105;DHT22;4095;48.942;9.104;2023-12-20T09:24:30;9.50;99.90
8105;DHT22;4095;48.942;9.104;2023-12-20T09:26:56;9.50;99.90
8105;DHT22;4095;48.942;9.104;2023-12-20T09:29:22;9.60;99.90
8105;DHT22;4095;48.942;9.104;2023-12-20T09:31:47;9.60;99.90
8105;DHT22;4095;48.942;9.104;2023-12-20T09:34:15;9.70;99.90
8105;DHT22;4095;48.942;9.104;2023-12-20T09:36:41;9.80;99.90
8105;DHT22;4095;48.942;9.104;2023-12-20T09:39:15;9.80;99.90
8105;DHT22;4095;48.942;9.104;2023-12-20T09:41:45;9.90;99.90
8105;DHT22;4095;48.942;9.104;2023-12-20T09:44:16;9.90;99.90
8105;DHT22;4095;48.942;9.104;2023-12-20T09:46:44;10.00;99.90
8105;DHT22;4095;48.942;9.104;2023-12-20T09:49:11;10.10;99.90
8105;DHT22;4095;48.942;9.104;2023-12-20T09:51:37;10.20;99.90
8105;DHT22;4095;48.942;9.104;2023-12-20T09:54:03;10.40;99.90
8105;DHT22;4095;48.942;9.104;2023-12-20T09:56:29;10.40;99.90
8105;DHT22;4095;48.942;9.104;2023-12-20T09:58:55;10.30;99.90
8105;DHT22;4095;48.942;9.104;2023-12-20T10:01:21;10.40;99.90
8105;DHT22;4095;48.942;9.104;2023-12-20T10:03:47;10.50;99.90
8105;DHT22;4095;48.942;9.104;2023-12-20T10:06:13;10.60;99.90
8105;DHT22;4095;48.942;9.104;2023-12-20T10:08:39;10.80;99.90
8105;DHT22;4095;48.942;9.104;2023-12-20T10:11:05;11.30;99.90
8105;DHT22;4095;48.942;9.104;2023-12-20T10:13:31;11.80;99.90
8105;DHT22;4095;48.942;9.104;2023-12-20T10:15:56;12.50;99.90
8105;DHT22;4095;48.942;9.104;2023-12-20T10:18:22;13.00;99.90
8105;DHT22;4095;48.942;9.104;2023-12-20T10:20:48;13.50;99.90
8105;DHT22;4095;48.942;9.104;2023-12-20T10:23:15;14.00;99.90
8105;DHT22;4095;48.942;9.104;2023-12-20T10:25:41;14.70;99.90
8105;DHT22;4095;48.942;9.104;2023-12-20T10:28:13;15.50;98.80
8105;DHT22;4095;48.942;9.104;2023-12-20T10:30:40;16.20;97.40
8105;DHT22;4095;48.942;9.104;2023-12-20T10:33:07;16.70;96.50
8105;DHT22;4095;48.942;9.104;2023-12-20T10:35:34;16.30;95.80
8105;DHT22;4095;48.942;9.104;2023-12-20T10:38:03;14.90;96.20
8105;DHT22;4095;48.942;9.104;2023-12-20T10:40:29;13.50;97.50
8105;DHT22;4095;48.942;9.104;2023-12-20T10:42:56;13.20;99.40
8105;DHT22;4095;48.942;9.104;2023-12-20T10:45:22;14.10;98.50
8105;DHT22;4095;48.942;9.104;2023-12-20T10:47:49;14.20;97.30
8105;DHT22;4095;48.942;9.104;2023-12-20T10:50:15;13.90;97.80
8105;DHT22;4095;48.942;9.104;2023-12-20T10:52:42;14.20;98.20
8105;DHT22;4095;48.942;9.104;2023-12-20T10:55:09;15.10;97.60
8105;DHT22;4095;48.942;9.104;2023-12-20T10:57:36;15.80;96.10
8105;DHT22;4095;48.942;9.104;2023-12-20T11:00:02;15.90;95.50
8105;DHT22;4095;48.942;9.104;2023-12-20T11:02:32;15.20;95.80
8105;DHT22;4095;48.942;9.104;2023-12-20T11:05:13;14.60;96.40
8105;DHT22;4095;48.942;9.104;2023-12-20T11:07:49;14.00;97.30
8105;DHT22;4095;48.942;9.104;2023-12-20T11:10:22;13.30;97.60
8105;DHT22;4095;48.942;9.104;2023-12-20T11:15:26;11.80;98.40
8105;DHT22;4095;48.942;9.104;2023-12-20T11:17:56;11.30;99.70
8105;DHT22;4095;48.942;9.104;2023-12-20T11:20:39;11.60;99.90
8105;DHT22;4095;48.942;9.104;2023-12-20T11:23:05;11.50;99.90
8105;DHT22;4095;48.942;9.104;2023-12-20T11:25:50;10.90;99.90
8105;DHT22;4095;48.942;9.104;2023-12-20T11:28:21;10.50;99.90
8105;DHT22;4095;48.942;9.104;2023-12-20T11:30:49;10.20;99.90
8105;DHT22;4095;48.942;9.104;2023-12-20T11:33:16;10.20;99.90
8105;DHT22;4095;48.942;9.104;2023-12-20T11:35:42;10.10;99.90
8105;DHT22;4095;48.942;9.104;2023-12-20T11:38:09;10.10;99.90
8105;DHT22;4095;48.942;9.104;2023-12-20T11:40:35;9.90;99.90
8105;DHT22;4095;48.942;9.104;2023-12-20T11:43:02;9.80;99.90
8105;DHT22;4095;48.942;9.104;2023-12-20T11:45:28;9.70;99.90
8105;DHT22;4095;48.942;9.104;2023-12-20T11:47:53;9.60;99.90
8105;DHT22;4095;48.942;9.104;2023-12-20T11:50:21;9.60;99.90
8105;DHT22;4095;48.942;9.104;2023-12-20T11:52:48;9.70;99.90
8105;DHT22;4095;48.942;9.104;2023-12-20T11:55:14;9.90;99.90
8105;DHT22;4095;48.942;9.104;2023-12-20T11:57:40;9.90;99.90
8105;DHT22;4095;48.942;9.104;2023-12-20T12:00:06;9.80;99.90
8105;DHT22;4095;48.942;9.104;2023-12-20T12:02:32;9.80;99.90
8105;DHT22;4095;48.942;9.104;2023-12-20T12:04:59;9.80;99.90
8105;DHT22;4095;48.942;9.104;2023-12-20T12:07:24;9.80;99.90
8105;DHT22;4095;48.942;9.104;2023-12-20T12:09:50;9.90;99.90
8105;DHT22;4095;48.942;9.104;2023-12-20T12:12:16;9.90;99.90
8105;DHT22;4095;48.942;9.104;2023-12-20T12:14:44;9.90;99.90
8105;DHT22;4095;48.942;9.104;2023-12-20T12:17:11;9.90;99.90
8105;DHT22;4095;48.942;9.104;2023-12-20T12:19:39;10.00;99.90
8105;DHT22;4095;48.942;9.104;2023-12-20T12:22:06;10.10;99.90
8105;DHT22;4095;48.942;9.104;2023-12-20T12:24:33;10.20;99.90
8105;DHT22;4095;48.942;9.104;2023-12-20T12:26:59;10.10;99.90
8105;DHT22;4095;48.942;9.104;2023-12-20T12:29:25;10.00;99.90
8105;DHT22;4095;48.942;9.104;2023-12-20T12:31:51;9.90;99.90
8105;DHT22;4095;48.942;9.104;2023-12-20T12:34:17;9.90;99.90
8105;DHT22;4095;48.942;9.104;2023-12-20T12:36:43;9.90;99.90
8105;DHT22;4095;48.942;9.104;2023-12-20T12:39:11;9.70;99.90
8105;DHT22;4095;48.942;9.104;2023-12-20T12:41:37;9.70;99.90
8105;DHT22;4095;48.942;9.104;2023-12-20T12:44:02;9.60;99.90
8105;DHT22;4095;48.942;9.104;2023-12-20T12:46:28;9.60;99.90
8105;DHT22;4095;48.942;9.104;2023-12-20T12:48:54;9.60;99.90
8105;DHT22;4095;48.942;9.104;2023-12-20T12:51:20;9.60;99.90
8105;DHT22;4095;48.942;9.104;2023-12-20T12:53:45;9.70;99.90
8105;DHT22;4095;48.942;9.104;2023-12-20T12:56:12;9.80;99.90
8105;DHT22;4095;48.942;9.104;2023-12-20T12:58:38;9.80;99.90
8105;DHT22;4095;48.942;9.104;2023-12-20T13:01:04;9.90;99.90
8105;DHT22;4095;48.942;9.104;2023-12-20T13:03:29;10.10;99.90
8105;DHT22;4095;48.942;9.104;2023-12-20T13:05:55;10.20;99.90
8105;DHT22;4095;48.942;9.104;2023-12-20T13:08:21;10.30;99.90
8105;DHT22;4095;48.942;9.104;2023-12-20T13:10:46;10.40;99.90
8105;DHT22;4095;48.942;9.104;2023-12-20T13:13:12;10.40;99.90
8105;DHT22;4095;48.942;9.104;2023-12-20T13:15:38;10.10;99.90
8105;DHT22;4095;48.942;9.104;2023-12-20T13:18:04;10.00;99.90
8105;DHT22;4095;48.942;9.104;2023-12-20T13:20:31;9.90;99.90
8105;DHT22;4095;48.942;9.104;2023-12-20T13:22:57;9.80;99.90
8105;DHT22;4095;48.942;9.104;2023-12-20T13:25:22;9.80;99.90
8105;DHT22;4095;48.942;9.104;2023-12-20T13:27:49;9.70;99.90
8105;DHT22;4095;48.942;9.104;2023-12-20T13:30:16;9.70;99.90
8105;DHT22;4095;48.942;9.104;2023-12-20T13:32:42;9.60;99.90
8105;DHT22;4095;48.942;9.104;2023-12-20T13:35:07;9.40;99.90
8105;DHT22;4095;48.942;9.104;2023-12-20T13:37:34;9.30;99.90
8105;DHT22;4095;48.942;9.104;2023-12-20T13:40:00;9.40;99.90
8105;DHT22;4095;48.942;9.104;2023-12-20T13:42:25;9.40;99.90
8105;DHT22;4095;48.942;9.104;2023-12-20T13:44:53;9.30;99.90
8105;DHT22;4095;48.942;9.104;2023-12-20T13:47:18;9.20;99.90
8105;DHT22;4095;48.942;9.104;2023-12-20T13:49:44;9.20;99.90
8105;DHT22;4095;48.942;9.104;2023-12-20T13:52:11;9.20;99.90
8105;DHT22;4095;48.942;9.104;2023-12-20T13:54:37;9.10;99.90
8105;DHT22;4095;48.942;9.104;2023-12-20T13:57:03;9.20;99.90
8105;DHT22;4095;48.942;9.104;2023-12-20T13:59:29;9.20;99.90
8105;DHT22;4095;48.942;9.104;2023-12-20T14:01:54;9.30;99.90
8105;DHT22;4095;48.942;9.104;2023-12-20T14:04:20;9.20;99.90
8105;DHT22;4095;48.942;9.104;2023-12-20T14:06:47;9.20;99.90
8105;DHT22;4095;48.942;9.104;2023-12-20T14:09:12;9.20;99.90
8105;DHT22;4095;48.942;9.104;2023-12-20T14:11:38;9.10;99.90
8105;DHT22;4095;48.942;9.104;2023-12-20T14:14:07;9.20;99.90
8105;DHT22;4095;48.942;9.104;2023-12-20T14:16:36;9.20;99.90
8105;DHT22;4095;48.942;9.104;2023-12-20T14:19:01;9.10;99.90
8105;DHT22;4095;48.942;9.104;2023-12-20T14:21:28;9.10;99.90
8105;DHT22;4095;48.942;9.104;2023-12-20T14:23:54;9.00;99.90
8105;DHT22;4095;48.942;9.104;2023-12-20T14:26:19;8.90;99.90
8105;DHT22;4095;48.942;9.104;2023-12-20T14:28:45;8.80;99.90
8105;DHT22;4095;48.942;9.104;2023-12-20T14:31:11;8.70;99.90
8105;DHT22;4095;48.942;9.104;2023-12-20T14:33:37;8.70;99.90
8105;DHT22;4095;48.942;9.104;2023-12-20T14:36:05;8.60;99.90
8105;DHT22;4095;48.942;9.104;2023-12-20T14:38:31;8.50;99.90
8105;DHT22;4095;48.942;9.104;2023-12-20T14:40:57;8.50;99.90
8105;DHT22;4095;48.942;9.104;2023-12-20T14:43:23;8.50;99.90
8105;DHT22;4095;48.942;9.104;2023-12-20T14:45:49;8.50;99.90
8105;DHT22;4095;48.942;9.104;2023-12-20T14:48:16;8.60;99.90
8105;DHT22;4095;48.942;9.104;2023-12-20T14:50:41;8.60;99.90
8105;DHT22;4095;48.942;9.104;2023-12-20T14:53:08;8.60;99.90
8105;DHT22;4095;48.942;9.104;2023-12-20T14:55:33;8.50;99.90
8105;DHT22;4095;48.942;9.104;2023-12-20T14:57:59;8.50;99.90
8105;DHT22;4095;48.942;9.104;2023-12-20T15:00:26;8.60;99.90
8105;DHT22;4095;48.942;9.104;2023-12-20T15:02:52;8.50;99.90
8105;DHT22;4095;48.942;9.104;2023-12-20T15:05:20;8.40;99.90
8105;DHT22;4095;48.942;9.104;2023-12-20T15:07:45;8.50;99.90
8105;DHT22;4095;48.942;9.104;2023-12-20T15:10:13;8.50;99.90
8105;DHT22;4095;48.942;9.104;2023-12-20T15:12:39;8.60;99.90
8105;DHT22;4095;48.942;9.104;2023-12-20T15:15:05;8.60;99.90
8105;DHT22;4095;48.942;9.104;2023-12-20T15:17:31;8.50;99.90
8105;DHT22;4095;48.942;9.104;2023-12-20T15:19:56;8.50;99.90
8105;DHT22;4095;48.942;9.104;2023-12-20T15:22:22;8.40;99.90
8105;DHT22;4095;48.942;9.104;2023-12-20T15:24:49;8.50;99.90
8105;DHT22;4095;48.942;9.104;2023-12-20T15:27:16;8.40;99.90
8105;DHT22;4095;48.942;9.104;2023-12-20T15:29:43;8.40;99.90
8105;DHT22;4095;48.942;9.104;2023-12-20T15:32:08;8.40;99.90
8105;DHT22;4095;48.942;9.104;2023-12-20T15:34:34;8.40;99.90
8105;DHT22;4095;48.942;9.104;2023-12-20T15:37:00;8.40;99.90
8105;DHT22;4095;48.942;9.104;2023-12-20T15:39:25;8.40;99.90
8105;DHT22;4095;48.942;9.104;2023-12-20T15:41:51;8.40;99.90
8105;DHT22;4095;48.942;9.104;2023-12-20T15:44:17;8.40;99.90
8105;DHT22;4095;48.942;9.104;2023-12-20T15:46:43;8.50;99.90
8105;DHT22;4095;48.942;9.104;2023-12-20T15:49:08;8.40;99.90
8105;DHT22;4095;48.942;9.104;2023-12-20T15:51:36;8.40;99.90
8105;DHT22;4095;48.942;9.104;2023-12-20T15:54:02;8.40;99.90
8105;DHT22;4095;48.942;9.104;2023-12-20T15:56:32;8.40;99.90
8105;DHT22;4095;48.942;9.104;2023-12-20T15:58:57;8.30;99.90
8105;DHT22;4095;48.942;9.104;2023-12-20T16:01:24;8.30;99.90
8105;DHT22;4095;48.942;9.104;2023-12-20T16:03:50;8.20;99.90
8105;DHT22;4095;48.942;9.104;2023-12-20T16:06:15;8.20;99.90
8105;DHT22;4095;48.942;9.104;2023-12-20T16:08:42;8.20;99.90
8105;DHT22;4095;48.942;9.104;2023-12-20T16:11:07;8.20;99.90